createdAt,value
2018-04-07T00:02:12.206Z,4.17
2018-04-07T00:04:37.981Z,6.30
2018-04-07T00:07:03.719Z,3.97
2018-04-07T00:09:29.504Z,4.93
2018-04-07T00:11:55.697Z,4.93
2018-04-07T00:14:21.438Z,5.70
2018-04-07T00:16:47.169Z,3.97
2018-04-07T00:19:12.934Z,5.20
2018-04-07T00:21:38.678Z,7.30
2018-04-07T00:24:04.433Z,6.77
2018-04-07T00:26:30.149Z,5.70
2018-04-07T00:28:55.895Z,7.23
2018-04-07T00:31:21.614Z,4.77
2018-04-07T00:33:47.354Z,8.30
2018-04-07T00:36:13.133Z,4.33
2018-04-07T00:38:38.879Z,5.63
2018-04-07T00:41:04.613Z,5.80
2018-04-07T00:43:30.368Z,5.67
2018-04-07T00:45:56.097Z,4.23
2018-04-07T00:48:21.850Z,6.00
2018-04-07T00:50:47.597Z,4.20
2018-04-07T00:53:13.326Z,8.67
2018-04-07T00:55:39.070Z,3.97
2018-04-07T00:58:04.834Z,5.93
2018-04-07T01:00:30.602Z,4.93
2018-04-07T01:02:56.338Z,5.07
2018-04-07T01:05:22.078Z,5.43
2018-04-07T01:07:47.825Z,4.50
2018-04-07T01:10:13.580Z,5.30
2018-04-07T01:12:39.328Z,7.00
2018-04-07T01:15:05.076Z,5.23
2018-04-07T01:17:30.804Z,6.97
2018-04-07T01:19:56.558Z,6.10
2018-04-07T01:22:22.286Z,7.53
2018-04-07T01:24:48.032Z,5.20
2018-04-07T01:27:13.761Z,4.67
2018-04-07T01:29:39.509Z,6.57
2018-04-07T01:32:05.246Z,7.10
2018-04-07T01:34:30.982Z,3.87
2018-04-07T01:36:56.715Z,4.63
2018-04-07T01:39:22.470Z,6.27
2018-04-07T01:41:48.201Z,5.93
2018-04-07T01:44:13.957Z,5.13
2018-04-07T01:46:39.705Z,8.10
2018-04-07T01:49:05.442Z,5.83
2018-04-07T01:51:31.165Z,7.57
2018-04-07T01:53:56.914Z,5.57
2018-04-07T01:56:22.649Z,5.17
2018-04-07T01:58:48.378Z,4.57
2018-04-07T02:01:14.112Z,4.67
2018-04-07T02:03:39.842Z,6.10
2018-04-07T02:06:05.578Z,7.13
2018-04-07T02:08:31.354Z,3.80
2018-04-07T02:10:57.106Z,7.00
2018-04-07T02:13:22.842Z,6.13
2018-04-07T02:15:48.597Z,7.07
2018-04-07T02:18:14.329Z,8.00
2018-04-07T02:20:40.060Z,5.07
2018-04-07T02:23:05.789Z,6.57
2018-04-07T02:25:31.525Z,6.30
2018-04-07T02:27:57.258Z,6.37
2018-04-07T02:30:23.005Z,5.90
2018-04-07T02:32:49.232Z,4.43
2018-04-07T02:35:14.989Z,5.60
2018-04-07T02:37:40.718Z,6.50
2018-04-07T02:40:06.453Z,5.70
2018-04-07T02:42:32.176Z,5.77
2018-04-07T02:44:57.918Z,6.20
2018-04-07T02:47:23.650Z,6.80
2018-04-07T02:49:49.378Z,3.60
2018-04-07T02:52:15.114Z,4.20
2018-04-07T02:54:40.859Z,4.37
2018-04-07T02:57:06.581Z,7.23
2018-04-07T02:59:32.290Z,3.83
2018-04-07T03:01:58.023Z,5.67
2018-04-07T03:04:23.739Z,5.07
2018-04-07T03:06:49.483Z,5.83
2018-04-07T03:09:15.211Z,6.90
2018-04-07T03:11:40.963Z,3.83
2018-04-07T03:14:06.690Z,5.00
2018-04-07T03:16:32.425Z,8.53
2018-04-07T03:18:58.154Z,5.10
2018-04-07T03:21:23.901Z,3.70
2018-04-07T03:23:49.642Z,6.20
2018-04-07T03:26:15.370Z,5.17
2018-04-07T03:28:41.088Z,4.17
2018-04-07T03:31:06.826Z,5.10
2018-04-07T03:33:32.546Z,5.37
2018-04-07T03:35:58.293Z,5.63
2018-04-07T03:38:24.014Z,6.80
2018-04-07T03:40:49.753Z,6.87
2018-04-07T03:43:15.513Z,5.63
2018-04-07T03:45:41.254Z,5.43
2018-04-07T03:48:06.979Z,6.80
2018-04-07T03:50:32.733Z,5.60
2018-04-07T03:52:58.457Z,6.73
2018-04-07T03:55:24.200Z,7.07
2018-04-07T03:57:49.971Z,8.33
2018-04-07T04:00:15.721Z,5.23
2018-04-07T04:02:41.461Z,4.67
2018-04-07T04:05:07.213Z,6.00
2018-04-07T04:07:32.937Z,6.03
2018-04-07T04:09:58.665Z,7.77
2018-04-07T04:12:24.405Z,4.93
2018-04-07T04:14:50.150Z,5.03
2018-04-07T04:17:15.890Z,8.40
2018-04-07T04:19:41.617Z,4.13
2018-04-07T04:22:07.355Z,5.57
2018-04-07T04:24:33.084Z,9.13
2018-04-07T04:26:58.814Z,6.47
2018-04-07T04:29:24.529Z,3.83
2018-04-07T04:31:50.261Z,6.83
2018-04-07T04:34:15.984Z,8.77
2018-04-07T04:36:41.722Z,5.87
2018-04-07T04:39:07.446Z,4.47
2018-04-07T04:41:33.214Z,5.97
2018-04-07T04:43:58.946Z,5.50
2018-04-07T04:46:24.671Z,4.63
2018-04-07T04:48:50.398Z,6.13
2018-04-07T04:51:16.130Z,4.50
2018-04-07T04:53:41.865Z,5.20
2018-04-07T04:56:07.590Z,5.90
2018-04-07T04:58:33.318Z,4.03
2018-04-07T05:00:59.056Z,7.30
2018-04-07T05:03:24.773Z,7.43
2018-04-07T05:05:50.498Z,6.87
2018-04-07T05:08:16.224Z,4.53
2018-04-07T05:10:41.954Z,4.43
2018-04-07T05:13:07.671Z,5.93
2018-04-07T05:15:33.414Z,4.50
2018-04-07T05:17:59.158Z,4.67
2018-04-07T05:20:24.913Z,6.73
2018-04-07T05:22:50.651Z,4.70
2018-04-07T05:25:16.387Z,4.50
2018-04-07T05:27:42.113Z,6.43
2018-04-07T05:30:07.841Z,5.30
2018-04-07T05:32:33.568Z,6.23
2018-04-07T05:34:59.301Z,5.43
2018-04-07T05:37:25.038Z,7.73
2018-04-07T05:39:50.758Z,6.90
2018-04-07T05:42:16.497Z,6.30
2018-04-07T05:44:42.209Z,7.40
2018-04-07T05:47:07.938Z,6.40
2018-04-07T05:49:33.659Z,5.43
2018-04-07T05:51:59.390Z,6.33
2018-04-07T05:54:25.143Z,8.47
2018-04-07T05:56:50.879Z,6.43
2018-04-07T05:59:16.607Z,7.73
2018-04-07T06:01:42.350Z,8.03
2018-04-07T06:04:08.090Z,6.17
2018-04-07T06:06:33.825Z,7.20
2018-04-07T06:08:59.546Z,6.80
2018-04-07T06:11:25.283Z,5.37
2018-04-07T06:13:51.014Z,4.47
2018-04-07T06:16:16.753Z,6.30
2018-04-07T06:18:42.481Z,8.00
2018-04-07T06:21:08.225Z,6.73
2018-04-07T06:23:33.944Z,5.53
2018-04-07T06:25:59.673Z,5.97
2018-04-07T06:28:25.414Z,4.37
2018-04-07T06:30:51.137Z,9.53
2018-04-07T06:33:16.866Z,5.13
2018-04-07T06:35:42.610Z,5.47
2018-04-07T06:38:08.372Z,6.87
2018-04-07T06:40:34.088Z,7.07
2018-04-07T06:42:59.832Z,9.03
2018-04-07T06:45:25.558Z,12.67
2018-04-07T06:47:51.285Z,7.90
2018-04-07T06:50:17.026Z,6.37
2018-04-07T06:52:42.754Z,7.67
2018-04-07T06:55:08.490Z,5.80
2018-04-07T06:57:34.223Z,6.03
2018-04-07T06:59:59.941Z,7.70
2018-04-07T07:02:25.657Z,6.43
2018-04-07T07:04:51.385Z,5.87
2018-04-07T07:07:17.118Z,8.03
2018-04-07T07:09:42.850Z,5.50
2018-04-07T07:12:08.580Z,7.13
2018-04-07T07:14:34.310Z,8.27
2018-04-07T07:17:00.052Z,6.33
2018-04-07T07:19:25.776Z,5.83
2018-04-07T07:21:51.505Z,6.90
2018-04-07T07:24:17.286Z,6.73
2018-04-07T07:26:42.974Z,5.00
2018-04-07T07:29:08.713Z,6.87
2018-04-07T07:31:34.438Z,10.70
2018-04-07T07:34:00.194Z,8.20
2018-04-07T07:36:25.922Z,8.80
2018-04-07T07:38:51.744Z,9.97
2018-04-07T07:41:17.495Z,9.30
2018-04-07T07:43:43.278Z,7.27
2018-04-07T07:46:09.035Z,4.97
2018-04-07T07:48:34.799Z,5.80
2018-04-07T07:51:00.547Z,6.43
2018-04-07T07:53:26.308Z,8.27
2018-04-07T07:55:52.095Z,6.20
2018-04-07T07:58:17.851Z,6.93
2018-04-07T08:00:43.613Z,7.13
2018-04-07T08:03:09.385Z,6.50
2018-04-07T08:05:35.144Z,6.00
2018-04-07T08:10:33.321Z,5.57
2018-04-07T08:12:59.073Z,7.93
2018-04-07T08:15:24.830Z,6.97
2018-04-07T08:17:50.588Z,9.93
2018-04-07T08:20:16.328Z,7.67
2018-04-07T08:22:42.078Z,7.60
2018-04-07T08:25:07.830Z,7.57
2018-04-07T08:27:33.578Z,10.07
2018-04-07T08:29:59.307Z,8.20
2018-04-07T08:32:25.061Z,7.77
2018-04-07T08:34:50.815Z,7.40
2018-04-07T08:37:16.575Z,7.30
2018-04-07T08:39:42.331Z,7.67
2018-04-07T08:42:08.130Z,7.23
2018-04-07T08:44:33.841Z,6.80
2018-04-07T08:46:59.590Z,6.67
2018-04-07T08:49:25.335Z,6.10
2018-04-07T08:51:51.066Z,7.03
2018-04-07T08:54:16.827Z,7.50
2018-04-07T08:56:42.554Z,7.63
2018-04-07T08:59:08.298Z,7.93
2018-04-07T09:01:34.027Z,8.37
2018-04-07T09:03:59.785Z,6.70
2018-04-07T09:06:25.516Z,8.47
2018-04-07T09:08:51.245Z,8.23
2018-04-07T09:11:16.979Z,6.80
2018-04-07T09:13:42.696Z,7.33
2018-04-07T09:16:08.433Z,9.47
2018-04-07T09:18:34.171Z,6.80
2018-04-07T09:20:59.904Z,7.57
2018-04-07T09:23:25.632Z,6.80
2018-04-07T09:25:51.410Z,8.13
2018-04-07T09:28:17.100Z,8.30
2018-04-07T09:30:42.826Z,7.23
2018-04-07T09:33:08.563Z,8.13
2018-04-07T09:35:34.282Z,5.93
2018-04-07T09:38:00.014Z,5.87
2018-04-07T09:40:25.739Z,10.10
2018-04-07T09:42:51.470Z,8.37
2018-04-07T09:45:17.209Z,6.90
2018-04-07T09:47:42.941Z,6.30
2018-04-07T09:50:08.698Z,7.13
2018-04-07T09:52:34.430Z,7.37
2018-04-07T09:55:00.174Z,6.93
2018-04-07T09:57:25.899Z,7.40
2018-04-07T09:59:51.696Z,9.27
2018-04-07T10:02:19.245Z,7.70
2018-04-07T10:04:45.009Z,8.27
2018-04-07T10:07:11.544Z,6.00
2018-04-07T10:09:37.273Z,8.27
2018-04-07T10:12:03.001Z,6.33
2018-04-07T10:14:28.737Z,7.77
2018-04-07T10:16:54.465Z,9.00
2018-04-07T10:19:20.215Z,8.27
2018-04-07T10:21:45.954Z,7.87
2018-04-07T10:24:11.701Z,9.30
2018-04-07T10:26:37.441Z,8.27
2018-04-07T10:29:03.179Z,8.13
2018-04-07T10:31:28.904Z,7.10
2018-04-07T10:33:54.658Z,7.90
2018-04-07T10:36:20.399Z,9.10
2018-04-07T10:38:46.125Z,9.03
2018-04-07T10:41:11.861Z,8.87
2018-04-07T10:43:37.599Z,8.20
2018-04-07T10:46:03.342Z,8.73
2018-04-07T10:48:29.099Z,8.40
2018-04-07T10:50:54.834Z,7.30
2018-04-07T10:53:21.092Z,9.67
2018-04-07T10:55:46.977Z,6.27
2018-04-07T10:58:12.709Z,8.07
2018-04-07T11:00:38.456Z,8.30
2018-04-07T11:03:04.177Z,8.37
2018-04-07T11:05:29.949Z,7.43
2018-04-07T11:07:56.145Z,6.50
2018-04-07T11:10:21.885Z,7.10
2018-04-07T11:12:47.631Z,8.07
2018-04-07T11:15:13.365Z,8.03
2018-04-07T11:17:39.098Z,6.37
2018-04-07T11:20:04.854Z,8.13
2018-04-07T11:22:30.790Z,8.63
2018-04-07T11:24:56.781Z,6.60
2018-04-07T11:27:22.814Z,7.73
2018-04-07T11:29:48.597Z,8.00
2018-04-07T11:32:14.326Z,6.30
2018-04-07T11:34:40.061Z,8.33
2018-04-07T11:37:05.800Z,8.97
2018-04-07T11:39:31.535Z,9.73
2018-04-07T11:41:57.269Z,7.70
2018-04-07T11:44:23.018Z,9.20
2018-04-07T11:46:49.417Z,7.23
2018-04-07T11:49:15.171Z,8.40
2018-04-07T11:51:40.926Z,7.17
2018-04-07T11:54:06.658Z,8.13
2018-04-07T11:56:32.401Z,9.97
2018-04-07T11:58:58.206Z,7.17
2018-04-07T12:01:23.955Z,9.57
2018-04-07T12:03:49.676Z,8.63
2018-04-07T12:06:15.422Z,8.83
2018-04-07T12:08:41.137Z,8.67
2018-04-07T12:11:06.885Z,7.77
2018-04-07T12:13:32.608Z,9.10
2018-04-07T12:15:58.362Z,7.63
2018-04-07T12:18:24.086Z,7.87
2018-04-07T12:20:49.834Z,8.17
2018-04-07T12:23:15.566Z,8.73
2018-04-07T12:25:41.308Z,9.10
2018-04-07T12:28:07.040Z,7.77
2018-04-07T12:30:32.782Z,7.00
2018-04-07T12:32:58.514Z,10.33
2018-04-07T12:35:24.246Z,8.60
2018-04-07T12:37:49.978Z,10.00
2018-04-07T12:40:15.718Z,8.67
2018-04-07T12:42:41.438Z,9.00
2018-04-07T12:45:07.177Z,9.30
2018-04-07T12:47:32.905Z,10.27
2018-04-07T12:49:58.654Z,8.63
2018-04-07T12:52:24.372Z,9.73
2018-04-07T12:54:50.113Z,8.30
2018-04-07T12:57:15.896Z,8.00
2018-04-07T12:59:41.656Z,10.27
2018-04-07T13:02:07.373Z,9.47
2018-04-07T13:04:33.106Z,7.10
2018-04-07T13:06:58.842Z,8.30
2018-04-07T13:09:24.593Z,7.10
2018-04-07T13:11:50.321Z,7.03
2018-04-07T13:14:16.057Z,7.53
2018-04-07T13:16:41.808Z,8.80
2018-04-07T13:19:07.574Z,9.20
2018-04-07T13:21:33.310Z,6.67
2018-04-07T13:23:59.042Z,6.73
2018-04-07T13:26:24.786Z,8.70
2018-04-07T13:28:50.524Z,9.70
2018-04-07T13:31:16.266Z,13.20
2018-04-07T13:33:41.996Z,7.97
2018-04-07T13:36:07.735Z,9.00
2018-04-07T13:38:33.454Z,7.10
2018-04-07T13:40:59.190Z,7.07
2018-04-07T13:43:24.922Z,9.20
2018-04-07T13:45:50.660Z,9.23
2018-04-07T13:48:16.394Z,7.20
2018-04-07T13:50:42.129Z,8.47
2018-04-07T13:53:07.849Z,8.40
2018-04-07T13:55:33.600Z,11.10
2018-04-07T13:57:59.333Z,8.97
2018-04-07T14:00:25.086Z,9.57
2018-04-07T14:02:50.813Z,10.27
2018-04-07T14:05:16.546Z,11.13
2018-04-07T14:07:42.292Z,11.73
2018-04-07T14:10:08.025Z,9.97
2018-04-07T14:12:33.766Z,9.27
2018-04-07T14:14:59.522Z,9.47
2018-04-07T14:17:25.267Z,9.53
2018-04-07T14:19:51.005Z,8.93
2018-04-07T14:22:16.750Z,9.77
2018-04-07T14:24:42.479Z,9.07
2018-04-07T14:27:08.226Z,10.33
2018-04-07T14:29:33.955Z,10.57
2018-04-07T14:31:59.694Z,9.23
2018-04-07T14:34:25.416Z,9.23
2018-04-07T14:36:51.167Z,8.77
2018-04-07T14:39:16.904Z,9.17
2018-04-07T14:41:42.648Z,9.17
2018-04-07T14:44:08.383Z,8.07
2018-04-07T14:46:34.131Z,8.00
2018-04-07T14:48:59.859Z,7.97
2018-04-07T14:51:25.611Z,10.03
2018-04-07T14:53:51.338Z,8.00
2018-04-07T14:56:17.088Z,8.70
2018-04-07T14:58:42.822Z,10.00
2018-04-07T15:01:08.558Z,10.07
2018-04-07T15:03:34.285Z,8.77
2018-04-07T15:06:00.025Z,10.70
2018-04-07T15:08:25.750Z,11.60
2018-04-07T15:10:51.470Z,8.97
2018-04-07T15:13:17.201Z,9.50
2018-04-07T15:15:42.929Z,9.53
2018-04-07T15:18:08.678Z,8.80
2018-04-07T15:20:34.443Z,10.13
2018-04-07T15:23:00.155Z,8.20
2018-04-07T15:25:25.880Z,8.97
2018-04-07T15:27:51.622Z,8.90
2018-04-07T15:30:17.362Z,8.63
2018-04-07T15:32:43.102Z,9.73
2018-04-07T15:35:08.825Z,12.40
2018-04-07T15:37:34.594Z,11.17
2018-04-07T15:40:00.314Z,11.17
2018-04-07T15:42:26.058Z,11.07
2018-04-07T15:44:58.889Z,9.93
2018-04-07T15:47:24.601Z,12.27
2018-04-07T15:49:50.328Z,15.93
2018-04-07T15:52:16.077Z,12.27
2018-04-07T15:54:41.806Z,13.70
2018-04-07T15:57:07.548Z,12.27
2018-04-07T15:59:33.289Z,12.47
2018-04-07T16:01:59.059Z,15.73
2018-04-07T16:04:24.815Z,18.47
2018-04-07T16:06:50.566Z,18.17
2018-04-07T16:09:16.307Z,31.50
2018-04-07T16:11:42.061Z,57.13
2018-04-07T16:14:07.793Z,16.77
2018-04-07T16:16:33.549Z,26.83
2018-04-07T16:18:59.279Z,50.63
2018-04-07T16:21:25.017Z,74.03
2018-04-07T16:23:50.746Z,96.90
2018-04-07T16:26:16.516Z,59.13
2018-04-07T16:28:42.266Z,56.13
2018-04-07T16:31:08.017Z,12.73
2018-04-07T16:33:33.804Z,11.73
2018-04-07T16:35:59.541Z,13.27
2018-04-07T16:38:25.294Z,15.90
2018-04-07T16:40:51.018Z,17.37
2018-04-07T16:43:16.761Z,21.00
2018-04-07T16:45:42.497Z,14.73
2018-04-07T16:48:08.291Z,16.07
2018-04-07T16:50:34.129Z,14.67
2018-04-07T16:52:59.885Z,16.90
2018-04-07T16:55:26.078Z,16.43
2018-04-07T16:57:51.878Z,18.00
2018-04-07T17:00:17.628Z,22.40
2018-04-07T17:02:43.425Z,19.67
2018-04-07T17:05:09.185Z,19.90
2018-04-07T17:07:34.910Z,17.50
2018-04-07T17:10:00.652Z,14.43
2018-04-07T17:12:26.402Z,13.10
2018-04-07T17:14:52.138Z,14.83
2018-04-07T17:17:17.954Z,13.13
2018-04-07T17:19:43.693Z,14.27
2018-04-07T17:22:09.437Z,21.13
2018-04-07T17:24:35.166Z,15.50
2018-04-07T17:27:00.885Z,15.70
2018-04-07T17:29:26.625Z,18.63
2018-04-07T17:31:52.359Z,13.00
2018-04-07T17:34:18.106Z,12.07
2018-04-07T17:36:43.838Z,19.63
2018-04-07T17:39:09.591Z,16.10
2018-04-07T17:41:35.313Z,14.63
2018-04-07T17:44:01.066Z,17.70
2018-04-07T17:46:26.801Z,15.97
2018-04-07T17:48:52.557Z,14.83
2018-04-07T17:51:18.291Z,18.43
2018-04-07T17:53:44.030Z,15.07
2018-04-07T17:56:09.771Z,17.97
2018-04-07T17:58:35.523Z,14.77
2018-04-07T18:01:01.294Z,16.07
2018-04-07T18:03:27.022Z,16.40
2018-04-07T18:05:52.769Z,19.73
2018-04-07T18:08:18.525Z,17.20
2018-04-07T18:10:44.259Z,16.50
2018-04-07T18:13:10.017Z,16.83
2018-04-07T18:15:35.769Z,18.13
2018-04-07T18:18:01.513Z,17.83
2018-04-07T18:20:28.139Z,18.77
2018-04-07T18:22:55.031Z,16.90
2018-04-07T18:25:22.616Z,14.50
2018-04-07T18:27:50.375Z,14.43
2018-04-07T18:30:17.666Z,14.83
2018-04-07T18:32:45.162Z,14.80
2018-04-07T18:35:13.105Z,13.10
2018-04-07T18:37:40.701Z,14.37
2018-04-07T18:40:08.027Z,13.60
2018-04-07T18:42:35.237Z,11.63
2018-04-07T18:45:02.293Z,12.67
2018-04-07T18:47:28.958Z,16.07
2018-04-07T18:49:56.725Z,13.23
2018-04-07T18:52:23.451Z,13.00
2018-04-07T18:54:50.706Z,13.93
2018-04-07T18:57:17.726Z,17.47
2018-04-07T18:59:44.026Z,22.60
2018-04-07T19:02:10.995Z,22.10
2018-04-07T19:04:37.546Z,18.97
2018-04-07T19:07:04.990Z,17.60
2018-04-07T19:09:32.082Z,15.03
2018-04-07T19:11:59.216Z,11.63
2018-04-07T19:14:26.024Z,17.77
2018-04-07T19:16:52.730Z,21.57
2018-04-07T19:19:18.547Z,33.20
2018-04-07T19:21:44.312Z,22.07
2018-04-07T19:24:10.226Z,17.60
2018-04-07T19:26:35.998Z,15.40
2018-04-07T19:29:02.698Z,13.53
2018-04-07T19:31:29.436Z,13.17
2018-04-07T19:33:55.207Z,12.50
2018-04-07T19:36:20.958Z,13.47
2018-04-07T19:38:46.714Z,11.17
2018-04-07T19:41:13.937Z,13.67
2018-04-07T19:43:40.672Z,11.67
2018-04-07T19:46:06.415Z,12.43
2018-04-07T19:48:32.164Z,14.40
2018-04-07T19:50:57.906Z,14.23
2018-04-07T19:53:23.663Z,16.77
2018-04-07T19:55:49.418Z,13.23
2018-04-07T19:58:15.157Z,14.80
2018-04-07T20:00:40.897Z,18.80
2018-04-07T20:03:06.629Z,15.30
2018-04-07T20:05:32.374Z,18.97
2018-04-07T20:07:58.130Z,16.23
2018-04-07T20:10:23.886Z,16.60
2018-04-07T20:12:49.635Z,16.73
2018-04-07T20:15:15.372Z,14.50
2018-04-07T20:17:41.110Z,14.93
2018-04-07T20:20:06.850Z,14.37
2018-04-07T20:22:32.600Z,13.80
2018-04-07T20:24:58.338Z,11.80
2018-04-07T20:27:24.085Z,14.97
2018-04-07T20:29:49.825Z,13.87
2018-04-07T20:32:15.556Z,16.90
2018-04-07T20:34:41.297Z,15.67
2018-04-07T20:37:07.034Z,18.00
2018-04-07T20:39:32.782Z,16.67
2018-04-07T20:42:11.129Z,14.13
2018-04-07T20:44:36.903Z,13.23
2018-04-07T20:47:02.685Z,13.60
2018-04-07T20:49:28.426Z,13.10
2018-04-07T20:51:54.154Z,17.23
2018-04-07T20:54:19.903Z,13.97
2018-04-07T20:56:45.646Z,15.80
2018-04-07T20:59:11.386Z,16.10
2018-04-07T21:01:37.114Z,14.93
2018-04-07T21:04:02.857Z,14.87
2018-04-07T21:06:28.600Z,13.97
2018-04-07T21:08:54.339Z,14.53
2018-04-07T21:11:20.101Z,16.50
2018-04-07T21:13:45.836Z,17.23
2018-04-07T21:16:11.561Z,16.87
2018-04-07T21:18:37.282Z,15.60
2018-04-07T21:21:03.018Z,16.00
2018-04-07T21:23:28.756Z,17.53
2018-04-07T21:25:54.503Z,19.07
2018-04-07T21:28:20.246Z,18.63
2018-04-07T21:30:45.998Z,21.03
2018-04-07T21:33:12.202Z,20.10
2018-04-07T21:35:37.958Z,18.00
2018-04-07T21:38:03.694Z,18.83
2018-04-07T21:40:29.442Z,17.93
2018-04-07T21:42:55.175Z,15.97
2018-04-07T21:45:20.914Z,16.90
2018-04-07T21:47:46.650Z,17.83
2018-04-07T21:50:12.414Z,14.60
2018-04-07T21:52:38.164Z,13.80
2018-04-07T21:55:04.406Z,14.57
2018-04-07T21:57:30.146Z,12.93
2018-04-07T21:59:55.896Z,12.47
2018-04-07T22:02:22.137Z,13.27
2018-04-07T22:04:47.887Z,16.10
2018-04-07T22:07:13.854Z,18.47
2018-04-07T22:09:39.906Z,17.33
2018-04-07T22:12:05.670Z,16.43
2018-04-07T22:14:31.421Z,17.27
2018-04-07T22:16:57.219Z,17.83
2018-04-07T22:19:23.002Z,18.67
2018-04-07T22:21:48.758Z,15.80
2018-04-07T22:24:15.618Z,16.67
2018-04-07T22:26:41.374Z,15.50
2018-04-07T22:29:07.101Z,15.73
2018-04-07T22:31:32.898Z,14.00
2018-04-07T22:33:58.641Z,14.73
2018-04-07T22:36:26.817Z,14.27
2018-04-07T22:38:52.586Z,13.77
2018-04-07T22:41:18.323Z,13.57
2018-04-07T22:43:44.064Z,15.03
2018-04-07T22:46:09.806Z,16.00
2018-04-07T22:48:35.538Z,12.87
2018-04-07T22:51:01.266Z,12.57
2018-04-07T22:53:27.014Z,12.73
2018-04-07T22:55:52.755Z,13.10
2018-04-07T22:58:18.494Z,13.87
2018-04-07T23:00:44.231Z,16.63
2018-04-07T23:03:09.959Z,13.97
2018-04-07T23:05:35.699Z,13.57
2018-04-07T23:08:01.435Z,12.93
2018-04-07T23:10:27.195Z,12.03
2018-04-07T23:12:52.930Z,13.13
2018-04-07T23:15:18.672Z,11.50
2018-04-07T23:17:44.444Z,14.07
2018-04-07T23:20:10.178Z,13.83
2018-04-07T23:22:36.013Z,13.63
2018-04-07T23:25:01.773Z,11.93
2018-04-07T23:27:27.825Z,12.43
2018-04-07T23:29:54.037Z,13.50
2018-04-07T23:32:19.789Z,15.10
2018-04-07T23:34:45.541Z,12.73
2018-04-07T23:37:11.283Z,14.10
2018-04-07T23:39:37.010Z,12.57
2018-04-07T23:42:02.752Z,13.40
2018-04-07T23:44:28.697Z,12.50
2018-04-07T23:46:54.555Z,14.50
2018-04-07T23:49:20.297Z,12.03
2018-04-07T23:51:46.050Z,12.03
2018-04-07T23:54:11.790Z,12.80
2018-04-07T23:56:37.542Z,14.23
2018-04-07T23:59:03.291Z,13.93
